Time;durP1;ratioP1;P1;durP2;ratioP2;P2;SDS_P1;SDS_P2;PMS_P1;PMS_P2;Temp;Humidity;BMP_temperature;BMP_pressure;BME280_temperature;BME280_humidity;BME280_pressure;Samples;Min_cycle;Max_cycle;Signal;HPM_P1;HPM_P2
2023/01/15 00:00:40;;;;;;;68.75;38.65;;;;;;;;;;21092160;28;20048;-64
2023/01/15 00:10:42;;;;;;;68.18;39.63;;;;;;;;;;21091528;28;20059;-60
2023/01/15 00:20:44;;;;;;;76.80;39.95;;;;;;;;;;21090090;28;20048;-59
2023/01/15 00:30:46;;;;;;;82.13;42.33;;;;;;;;;;21089962;28;20100;-60
2023/01/15 00:40:51;;;;;;;77.45;42.67;;;;;;;;;;21091947;28;20056;-62
2023/01/15 00:50:53;;;;;;;;;;;;;;;;;;21088253;28;20505;-63
2023/01/15 01:00:56;;;;;;;53.80;29.88;;;;;;;;;;21087455;28;20268;-61
2023/01/15 01:11:05;;;;;;;50.75;30.33;;;;;;;;;;21086507;28;20051;-61
2023/01/15 01:21:07;;;;;;;54.95;32.95;;;;;;;;;;21086228;28;20048;-62
2023/01/15 01:31:10;;;;;;;51.85;29.73;;;;;;;;;;21085752;28;20476;-58
2023/01/15 01:41:12;;;;;;;46.90;31.05;;;;;;;;;;21083363;28;20060;-58
2023/01/15 01:51:16;;;;;;;48.78;28.80;;;;;;;;;;21084702;28;20089;-61
2023/01/15 02:01:19;;;;;;;49.10;29.23;;;;;;;;;;21083832;28;20147;-57
2023/01/15 02:11:23;;;;;;;49.17;29.90;;;;;;;;;;21084103;28;20081;-57
2023/01/15 02:21:38;;;;;;;50.87;29.30;;;;;;;;;;21087231;28;20476;-61
2023/01/15 02:31:45;;;;;;;51.85;29.48;;;;;;;;;;21088144;28;20044;-59
2023/01/15 02:41:51;;;;;;;55.40;31.13;;;;;;;;;;21081862;28;20135;-58
2023/01/15 02:52:12;;;;;;;50.80;31.13;;;;;;;;;;21085696;28;20051;-58
2023/01/15 03:02:26;;;;;;;49.72;28.98;;;;;;;;;;21099210;28;20502;-59
2023/01/15 03:13:01;;;;;;;45.42;28.30;;;;;;;;;;21096740;28;20467;-59
2023/01/15 03:23:20;;;;;;;47.17;27.67;;;;;;;;;;21096035;28;20083;-60
2023/01/15 03:33:38;;;;;;;40.22;25.42;;;;;;;;;;21093805;28;20083;-61
2023/01/15 03:44:12;;;;;;;50.08;27.17;;;;;;;;;;21094554;28;20127;-60
2023/01/15 03:54:40;;;;;;;43.10;25.45;;;;;;;;;;21105047;28;20476;-57
2023/01/15 04:04:49;;;;;;;41.58;24.60;;;;;;;;;;21092631;28;20074;-61
2023/01/15 04:14:53;;;;;;;44.22;25.88;;;;;;;;;;21092047;28;20431;-58
2023/01/15 04:24:59;;;;;;;39.17;24.73;;;;;;;;;;21090920;28;20044;-58
2023/01/15 04:35:05;;;;;;;44.95;25.60;;;;;;;;;;21090417;28;20048;-59
2023/01/15 04:45:12;;;;;;;45.50;25.58;;;;;;;;;;21089492;28;20048;-59
2023/01/15 04:55:20;;;;;;;43.35;26.42;;;;;;;;;;21089320;28;20502;-58
2023/01/15 05:05:26;;;;;;;;;;;;;;;;;;21088642;28;20484;-59
2023/01/15 05:15:30;;;;;;;42.85;23.73;;;;;;;;;;21086420;28;19942;-59
2023/01/15 05:25:33;;;;;;;29.73;17.80;;;;;;;;;;21086255;28;20044;-60
2023/01/15 05:35:36;;;;;;;26.48;15.32;;;;;;;;;;21084956;28;20052;-60
2023/01/15 05:45:41;;;;;;;23.98;14.48;;;;;;;;;;21084627;28;20123;-57
2023/01/15 05:55:43;;;;;;;23.98;14.77;;;;;;;;;;21086079;28;20083;-57
2023/01/15 06:05:49;;;;;;;25.73;14.57;;;;;;;;;;21065853;28;20044;-61
2023/01/15 06:15:53;;;;;;;22.02;13.57;;;;;;;;;;21093639;28;20048;-60
2023/01/15 06:26:00;;;;;;;28.08;16.13;;;;;;;;;;21080651;28;20044;-60
2023/01/15 06:36:12;;;;;;;23.10;14.18;;;;;;;;;;21080914;28;20059;-62
2023/01/15 06:56:38;;;;;;;21.25;13.18;;;;;;;;;;21081132;28;20492;-60
2023/01/15 07:06:43;;;;;;;19.83;12.32;;;;;;;;;;21081949;28;20054;-61
2023/01/15 07:16:49;;;;;;;18.77;11.17;;;;;;;;;;21086725;28;20056;-61
2023/01/15 07:26:52;;;;;;;17.58;11.15;;;;;;;;;;21082006;28;20044;-61
2023/01/15 07:36:56;;;;;;;14.83;9.70;;;;;;;;;;21061462;28;20142;-57
2023/01/15 07:57:20;;;;;;;18.83;10.50;;;;;;;;;;21094007;28;20079;-57
2023/01/15 08:07:24;;;;;;;;;;;;;;;;;;21092570;28;20446;-59
2023/01/15 08:17:27;;;;;;;17.92;10.73;;;;;;;;;;21092612;28;19973;-59
2023/01/15 08:27:29;;;;;;;17.50;11.27;;;;;;;;;;21093419;28;20048;-59
2023/01/15 08:37:32;;;;;;;19.35;11.45;;;;;;;;;;21092031;28;20069;-61
2023/01/15 08:47:33;;;;;;;21.52;12.30;;;;;;;;;;21091840;28;20048;-60
2023/01/15 08:57:37;;;;;;;21.30;12.73;;;;;;;;;;21087710;28;20083;-60
2023/01/15 09:07:39;;;;;;;11.90;6.07;;;;;;;;;;21046382;28;20051;-62
2023/01/15 09:17:42;;;;;;;16.38;10.57;;;;;;;;;;20999224;28;20048;-59
2023/01/15 09:27:44;;;;;;;14.00;9.38;;;;;;;;;;21004761;28;20504;-59
2023/01/15 09:37:50;;;;;;;13.25;9.57;;;;;;;;;;20999258;28;20386;-60
2023/01/15 09:48:11;;;;;;;12.82;7.15;;;;;;;;;;20999458;28;20049;-61
2023/01/15 09:58:14;;;;;;;12.85;8.18;;;;;;;;;;20997684;28;20489;-59
2023/01/15 10:08:20;;;;;;;12.43;8.30;;;;;;;;;;20996741;28;20159;-59
2023/01/15 10:18:22;;;;;;;10.85;7.72;;;;;;;;;;20997125;28;20055;-57
2023/01/15 10:28:31;;;;;;;12.48;7.32;;;;;;;;;;20997696;28;20467;-59
2023/01/15 10:38:36;;;;;;;9.65;6.95;;;;;;;;;;20994821;28;20136;-59
2023/01/15 10:48:38;;;;;;;;;;;;;;;;;;20996155;28;20409;-59
2023/01/15 10:58:41;;;;;;;12.63;9.07;;;;;;;;;;20995622;28;20385;-60
2023/01/15 11:08:50;;;;;;;8.15;6.45;;;;;;;;;;20994491;28;20082;-58
2023/01/15 11:29:15;;;;;;;8.32;5.50;;;;;;;;;;21009897;28;20346;-59
2023/01/15 11:39:26;;;;;;;7.05;5.10;;;;;;;;;;21010366;28;20060;-59
2023/01/15 11:59:49;;;;;;;8.05;5.45;;;;;;;;;;21007685;28;20052;-60
2023/01/15 12:10:02;;;;;;;7.82;5.53;;;;;;;;;;21006949;28;20049;-60
2023/01/15 12:20:16;;;;;;;7.30;5.10;;;;;;;;;;21005953;28;20132;-58
2023/01/15 12:30:26;;;;;;;6.57;4.80;;;;;;;;;;21004519;28;20059;-59
2023/01/15 12:40:31;;;;;;;7.82;4.30;;;;;;;;;;21003546;28;20060;-58
2023/01/15 12:50:33;;;;;;;6.20;3.30;;;;;;;;;;21003284;28;20071;-59
2023/01/15 13:00:37;;;;;;;4.80;3.00;;;;;;;;;;21003824;28;20552;-61
2023/01/15 13:10:40;;;;;;;2.30;1.80;;;;;;;;;;21003350;28;20048;-62
2023/01/15 13:20:46;;;;;;;3.30;1.92;;;;;;;;;;21001804;28;20048;-61
2023/01/15 13:30:51;;;;;;;1.97;0.70;;;;;;;;;;20999298;28;20045;-56
2023/01/15 13:40:54;;;;;;;1.00;0.57;;;;;;;;;;20997828;28;20497;-56
2023/01/15 13:50:56;;;;;;;1.05;0.60;;;;;;;;;;20998225;28;20048;-57
2023/01/15 14:01:08;;;;;;;1.42;0.77;;;;;;;;;;20998081;28;20403;-59
2023/01/15 14:11:28;;;;;;;1.45;0.80;;;;;;;;;;20996637;28;20111;-57
2023/01/15 14:21:30;;;;;;;1.83;0.60;;;;;;;;;;20996246;28;20464;-58
2023/01/15 14:31:49;;;;;;;1.10;0.45;;;;;;;;;;20995199;28;20052;-58
2023/01/15 14:52:23;;;;;;;3.42;1.00;;;;;;;;;;20994712;28;20489;-62
2023/01/15 15:02:31;;;;;;;1.45;0.77;;;;;;;;;;20995362;28;20084;-62
2023/01/15 15:12:32;;;;;;;0.90;0.40;;;;;;;;;;20995046;28;20131;-62
2023/01/15 15:22:36;;;;;;;2.55;0.60;;;;;;;;;;20993419;28;20062;-64
2023/01/15 15:32:40;;;;;;;2.17;1.00;;;;;;;;;;20975466;28;20135;-63
2023/01/15 15:53:19;;;;;;;1.83;1.30;;;;;;;;;;20992912;28;20139;-61
2023/01/15 16:03:24;;;;;;;1.02;0.70;;;;;;;;;;21001275;28;20139;-63
2023/01/15 16:13:36;;;;;;;1.73;1.10;;;;;;;;;;21007551;28;20058;-64
2023/01/15 16:23:38;;;;;;;7.07;4.00;;;;;;;;;;21006831;28;20401;-59
2023/01/15 16:33:40;;;;;;;2.13;1.60;;;;;;;;;;21004568;28;20056;-58
2023/01/15 16:43:55;;;;;;;2.50;0.90;;;;;;;;;;21004566;28;20075;-62
2023/01/15 16:53:57;;;;;;;;;;;;;;;;;;20985630;28;20055;-58
2023/01/15 17:03:59;;;;;;;4.30;1.80;;;;;;;;;;21002745;28;20364;-62
2023/01/15 17:14:09;;;;;;;3.22;1.63;;;;;;;;;;21000834;28;20048;-62
2023/01/15 17:24:13;;;;;;;3.55;2.30;;;;;;;;;;20999968;28;20097;-63
2023/01/15 17:34:15;;;;;;;1.52;1.05;;;;;;;;;;20998826;28;20048;-59
2023/01/15 17:44:17;;;;;;;5.00;2.58;;;;;;;;;;20998585;28;20080;-63
2023/01/15 18:05:24;;;;;;;4.30;1.90;;;;;;;;;;20998100;28;20087;-59
2023/01/15 18:15:05;;;;;;;5.85;3.17;;;;;;;;;;20996488;28;20415;-62
2023/01/15 18:25:09;;;;;;;3.90;2.45;;;;;;;;;;20994162;28;20512;-63
2023/01/15 18:35:13;;;;;;;5.72;2.92;;;;;;;;;;20994350;28;20060;-61
2023/01/15 18:55:37;;;;;;;7.28;5.53;;;;;;;;;;20995298;28;20098;-63
2023/01/15 19:05:38;;;;;;;4.10;2.90;;;;;;;;;;20995260;28;20485;-63
2023/01/15 19:26:03;;;;;;;6.03;3.92;;;;;;;;;;20993682;28;20153;-58
2023/01/15 19:36:06;;;;;;;3.75;2.00;;;;;;;;;;20999373;28;20048;-62
2023/01/15 19:56:32;;;;;;;8.35;4.55;;;;;;;;;;21008237;28;20112;-58
2023/01/15 20:06:34;;;;;;;4.53;2.28;;;;;;;;;;21007675;28;20452;-60
2023/01/15 20:16:36;;;;;;;5.18;2.25;;;;;;;;;;21005958;28;20135;-58
2023/01/15 20:26:38;;;;;;;40.58;24.88;;;;;;;;;;21005796;28;20044;-58
2023/01/15 20:36:40;;;;;;;7.18;3.45;;;;;;;;;;20987304;28;20056;-58
2023/01/15 20:46:43;;;;;;;3.60;1.40;;;;;;;;;;21004885;28;20455;-58
2023/01/15 20:56:45;;;;;;;5.97;2.08;;;;;;;;;;21004689;28;20794;-61
2023/01/15 21:06:47;;;;;;;2.72;1.38;;;;;;;;;;20985300;28;20045;-59
2023/01/15 21:16:50;;;;;;;2.75;1.50;;;;;;;;;;21001595;28;20051;-60
2023/01/15 21:26:52;;;;;;;4.32;1.60;;;;;;;;;;21002251;28;20619;-62
2023/01/15 21:36:54;;;;;;;3.15;1.20;;;;;;;;;;21000733;28;20140;-61
2023/01/15 21:46:56;;;;;;;3.58;1.02;;;;;;;;;;20999693;28;20070;-60
2023/01/15 21:56:58;;;;;;;2.80;1.05;;;;;;;;;;20980975;28;20139;-57
2023/01/15 22:07:00;;;;;;;4.20;1.42;;;;;;;;;;20999912;28;20049;-56
2023/01/15 22:17:03;;;;;;;4.70;1.10;;;;;;;;;;20999073;28;20080;-58
2023/01/15 22:27:06;;;;;;;2.75;1.10;;;;;;;;;;20996965;28;20044;-58
2023/01/15 22:37:12;;;;;;;4.38;1.45;;;;;;;;;;20996904;28;20049;-60
2023/01/15 22:47:13;;;;;;;2.38;1.30;;;;;;;;;;20998752;28;20056;-55
2023/01/15 22:57:16;;;;;;;4.25;2.03;;;;;;;;;;20984039;28;20049;-57
2023/01/15 23:07:18;;;;;;;5.05;1.20;;;;;;;;;;21001191;28;20131;-58
2023/01/15 23:17:19;;;;;;;4.30;1.17;;;;;;;;;;21013012;28;20060;-56
2023/01/15 23:27:23;;;;;;;7.20;2.08;;;;;;;;;;21011079;28;20451;-57
2023/01/15 23:37:24;;;;;;;6.22;1.63;;;;;;;;;;21010336;28;20048;-57
2023/01/15 23:47:25;;;;;;;5.53;1.60;;;;;;;;;;21010669;28;20049;-57
2023/01/15 23:57:27;;;;;;;3.40;1.38;;;;;;;;;;21008174;28;20049;-55
